Terminal Aerodrome Forecast
Issued by NWS Knoxville/Tri Cities, TN

Home | Current Version | Previous Version | Text Only | Print | Product List | Glossary On
Versions: 1 2 3 4 5 6 7 8 9 10 11 12 13 14 15 16 17 18 19 20 21 22 23 24
000
FTUS44 KMRX 111123
TAFTYS
TAF
KTYS 111123Z 1112/1212 04003KT P6SM SCT250
     FM111600 19010KT P6SM BKN250
     FM120000 20012KT P6SM SCT020 OVC040
     FM120600 21010KT 5SM -SHRA BR SCT007 OVC020=

USA.gov is the U.S. government's official web portal to all federal, state and local government web resources and services.